Time;durP1;ratioP1;P1;durP2;ratioP2;P2;SDS_P1;SDS_P2;PMS_P1;PMS_P2;Temp;Humidity;BMP_temperature;BMP_pressure;BME280_temperature;BME280_humidity;BME280_pressure;Samples;Min_cycle;Max_cycle;Signal;HPM_P1;HPM_P2
2022/09/30 00:00:49;;;;;;;5.30;3.70;;;;;;;;;;5058938;28;20275;-74
2022/09/30 00:03:15;;;;;;;5.10;3.73;;;;;;;;;;5058419;28;20195;-74
2022/09/30 00:05:40;;;;;;;8.67;4.63;;;;;;;;;;5065980;28;20202;-74
2022/09/30 00:08:05;;;;;;;15.20;7.47;;;;;;;;;;5063478;28;20183;-74
2022/09/30 00:10:30;;;;;;;4.47;3.13;;;;;;;;;;5060854;28;20187;-74
2022/09/30 00:12:57;;;;;;;4.40;3.80;;;;;;;;;;5063222;28;20208;-74
2022/09/30 00:15:23;;;;;;;4.57;3.10;;;;;;;;;;5065041;28;20180;-74
2022/09/30 00:17:48;;;;;;;5.57;3.47;;;;;;;;;;5067405;28;20230;-74
2022/09/30 00:20:13;;;;;;;5.20;3.40;;;;;;;;;;5065030;28;20276;-74
2022/09/30 00:22:39;;;;;;;3.73;3.40;;;;;;;;;;5065899;28;20202;-74
2022/09/30 00:25:04;;;;;;;4.27;3.70;;;;;;;;;;5065952;28;20184;-74
2022/09/30 00:27:29;;;;;;;5.43;3.50;;;;;;;;;;5061689;28;20387;-74
2022/09/30 00:29:55;;;;;;;4.63;3.43;;;;;;;;;;5064974;28;20198;-74
2022/09/30 00:32:23;;;;;;;4.00;3.63;;;;;;;;;;5074071;28;20235;-74
2022/09/30 00:34:48;;;;;;;3.40;3.10;;;;;;;;;;5068280;28;20183;-74
2022/09/30 00:37:14;;;;;;;4.13;3.27;;;;;;;;;;5082318;28;20200;-74
2022/09/30 00:39:39;;;;;;;5.70;3.20;;;;;;;;;;5069687;28;20207;-74
2022/09/30 00:42:07;;;;;;;4.67;3.40;;;;;;;;;;5064786;28;20266;-74
2022/09/30 00:44:44;;;;;;;4.53;3.37;;;;;;;;;;5083458;28;20180;-74
2022/09/30 00:47:28;;;;;;;5.63;3.77;;;;;;;;;;5068364;28;20489;-74
2022/09/30 00:49:54;;;;;;;4.63;3.57;;;;;;;;;;5067150;28;20180;-74
2022/09/30 00:52:19;;;;;;;4.27;3.70;;;;;;;;;;5064983;28;20186;-74
2022/09/30 00:54:44;;;;;;;4.80;4.33;;;;;;;;;;5061323;28;20184;-74
2022/09/30 00:57:10;;;;;;;8.07;4.10;;;;;;;;;;5065388;28;20283;-74
2022/09/30 00:59:38;;;;;;;3.97;3.57;;;;;;;;;;5069072;28;20214;-74
2022/09/30 01:02:04;;;;;;;6.97;4.27;;;;;;;;;;5062350;28;20178;-74
2022/09/30 01:04:31;;;;;;;4.37;3.83;;;;;;;;;;5062573;28;20181;-74
2022/09/30 01:06:58;;;;;;;7.40;3.80;;;;;;;;;;5064785;28;20172;-74
2022/09/30 01:09:23;;;;;;;5.67;4.17;;;;;;;;;;5066931;28;20394;-74
2022/09/30 01:11:49;;;;;;;6.83;3.63;;;;;;;;;;5065696;28;20210;-74
2022/09/30 01:14:20;;;;;;;4.57;4.10;;;;;;;;;;5070572;28;20189;-74
2022/09/30 01:16:59;;;;;;;5.13;3.70;;;;;;;;;;5061939;28;20266;-74
2022/09/30 01:19:51;;;;;;;8.97;4.57;;;;;;;;;;5066009;28;20203;-74
2022/09/30 01:22:35;;;;;;;5.13;4.53;;;;;;;;;;5068005;28;20184;-74
2022/09/30 01:25:19;;;;;;;6.80;3.87;;;;;;;;;;5060001;28;20179;-74
2022/09/30 01:27:57;;;;;;;5.43;3.23;;;;;;;;;;5059485;28;20180;-74
2022/09/30 01:30:35;;;;;;;4.43;3.57;;;;;;;;;;5060959;28;20194;-74
2022/09/30 01:33:03;;;;;;;3.67;3.27;;;;;;;;;;5061067;28;20226;-74
2022/09/30 01:35:42;;;;;;;5.83;3.50;;;;;;;;;;5067040;28;20199;-74
2022/09/30 01:38:29;;;;;;;4.37;3.60;;;;;;;;;;5074783;28;20203;-74
2022/09/30 01:40:55;;;;;;;7.20;4.37;;;;;;;;;;5059509;28;20193;-74
2022/09/30 01:43:29;;;;;;;4.67;3.80;;;;;;;;;;5066613;28;20183;-74
2022/09/30 01:46:10;;;;;;;7.80;4.17;;;;;;;;;;5065851;28;20193;-74
2022/09/30 01:48:42;;;;;;;5.60;4.43;;;;;;;;;;5063856;28;20189;-74
2022/09/30 01:51:27;;;;;;;6.80;4.77;;;;;;;;;;5060197;28;20178;-74
2022/09/30 01:53:58;;;;;;;6.70;4.60;;;;;;;;;;5062720;28;20212;-74
2022/09/30 01:56:23;;;;;;;6.80;3.90;;;;;;;;;;5065996;28;20191;-74
2022/09/30 01:58:48;;;;;;;5.37;3.70;;;;;;;;;;5060018;28;20197;-74
2022/09/30 02:01:18;;;;;;;5.53;4.17;;;;;;;;;;5066605;28;20191;-74
2022/09/30 02:03:47;;;;;;;6.03;3.83;;;;;;;;;;5063444;28;20198;-74
2022/09/30 02:06:17;;;;;;;4.57;3.63;;;;;;;;;;5078261;28;20270;-74
2022/09/30 02:08:55;;;;;;;4.83;4.20;;;;;;;;;;5069946;28;20190;-74
2022/09/30 02:11:28;;;;;;;4.57;3.87;;;;;;;;;;5062090;28;20261;-74
2022/09/30 02:13:57;;;;;;;5.70;3.40;;;;;;;;;;5065047;28;20187;-74
2022/09/30 02:16:24;;;;;;;4.77;3.60;;;;;;;;;;5061517;28;20179;-74
2022/09/30 02:18:52;;;;;;;5.90;4.17;;;;;;;;;;5059737;28;20287;-74
2022/09/30 02:21:22;;;;;;;6.23;3.93;;;;;;;;;;5059149;28;20184;-74
2022/09/30 02:23:51;;;;;;;4.97;4.00;;;;;;;;;;5063081;28;20246;-74
2022/09/30 02:26:22;;;;;;;5.27;4.17;;;;;;;;;;5074730;28;20198;-74
2022/09/30 02:28:52;;;;;;;5.03;3.90;;;;;;;;;;5058900;28;20241;-74
2022/09/30 02:31:18;;;;;;;5.33;3.80;;;;;;;;;;5080559;28;20193;-74
2022/09/30 02:33:46;;;;;;;4.73;3.80;;;;;;;;;;5064318;28;20288;-74
2022/09/30 02:36:29;;;;;;;4.47;3.63;;;;;;;;;;5063127;28;20192;-74
2022/09/30 02:39:00;;;;;;;5.60;3.70;;;;;;;;;;5062432;28;20255;-74
2022/09/30 02:41:27;;;;;;;4.60;3.50;;;;;;;;;;5062823;28;20504;-74
2022/09/30 02:43:56;;;;;;;5.33;3.37;;;;;;;;;;5063414;28;20174;-74
2022/09/30 02:46:21;;;;;;;5.37;3.37;;;;;;;;;;5066707;28;20188;-74
2022/09/30 02:48:59;;;;;;;5.60;3.87;;;;;;;;;;5059699;28;20374;-74
2022/09/30 02:51:31;;;;;;;7.70;4.07;;;;;;;;;;5063089;28;20283;-74
2022/09/30 02:53:57;;;;;;;5.47;3.87;;;;;;;;;;5058846;28;20184;-74
2022/09/30 02:56:25;;;;;;;4.27;3.87;;;;;;;;;;5065996;28;20275;-74
2022/09/30 02:58:51;;;;;;;8.47;4.13;;;;;;;;;;5068083;28;20199;-74
2022/09/30 03:01:17;;;;;;;4.60;4.20;;;;;;;;;;5059019;28;20188;-74
2022/09/30 03:03:46;;;;;;;6.00;4.17;;;;;;;;;;5061755;28;20180;-74
2022/09/30 03:06:12;;;;;;;4.73;3.80;;;;;;;;;;5067584;28;20214;-74
2022/09/30 03:08:37;;;;;;;4.93;4.30;;;;;;;;;;5070110;28;20262;-74
2022/09/30 03:11:03;;;;;;;5.00;4.33;;;;;;;;;;5067685;28;20251;-74
2022/09/30 03:13:28;;;;;;;6.40;4.20;;;;;;;;;;5064014;28;20188;-74
2022/09/30 03:16:14;;;;;;;4.53;4.10;;;;;;;;;;5064014;28;20351;-74
2022/09/30 03:18:42;;;;;;;7.57;6.53;;;;;;;;;;5024822;28;20268;-74
2022/09/30 03:21:31;;;;;;;7.20;4.70;;;;;;;;;;5064332;28;20191;-74
2022/09/30 03:24:08;;;;;;;3.97;3.63;;;;;;;;;;5068079;28;20171;-74
2022/09/30 03:26:34;;;;;;;4.20;3.80;;;;;;;;;;5063520;28;20237;-74
2022/09/30 03:29:07;;;;;;;4.43;3.83;;;;;;;;;;5060349;28;20187;-74
2022/09/30 03:31:33;;;;;;;6.10;3.50;;;;;;;;;;5062468;28;20185;-74
2022/09/30 03:33:58;;;;;;;6.20;3.80;;;;;;;;;;5060112;28;20196;-74
2022/09/30 03:36:26;;;;;;;9.30;4.60;;;;;;;;;;5059788;28;20188;-74
2022/09/30 03:38:58;;;;;;;6.30;4.10;;;;;;;;;;5062263;28;20202;-74
2022/09/30 03:41:26;;;;;;;6.13;4.63;;;;;;;;;;5067084;28;20199;-74
2022/09/30 03:44:06;;;;;;;6.10;4.57;;;;;;;;;;5061542;28;20175;-74
2022/09/30 03:46:33;;;;;;;4.60;4.20;;;;;;;;;;5062835;28;20228;-74
2022/09/30 03:49:00;;;;;;;4.83;4.13;;;;;;;;;;5063660;28;20188;-74
2022/09/30 03:51:28;;;;;;;4.73;4.27;;;;;;;;;;5067759;28;20222;-74
2022/09/30 03:53:54;;;;;;;6.87;5.97;;;;;;;;;;5070740;28;20204;-74
2022/09/30 03:56:27;;;;;;;6.03;3.97;;;;;;;;;;5069430;28;20200;-74
2022/09/30 03:58:52;;;;;;;6.70;4.60;;;;;;;;;;5067097;28;20202;-74
2022/09/30 04:01:20;;;;;;;5.63;5.03;;;;;;;;;;5072447;28;20192;-74
2022/09/30 04:03:45;;;;;;;8.33;4.97;;;;;;;;;;5067171;28;20346;-74
2022/09/30 04:06:11;;;;;;;5.90;4.40;;;;;;;;;;5063505;28;20257;-74
2022/09/30 04:08:37;;;;;;;13.43;5.10;;;;;;;;;;5070301;28;20197;-74
2022/09/30 04:11:02;;;;;;;5.93;4.77;;;;;;;;;;5067051;28;20177;-74
2022/09/30 04:13:27;;;;;;;6.30;4.93;;;;;;;;;;5068538;28;20176;-74
2022/09/30 04:15:53;;;;;;;7.97;5.13;;;;;;;;;;5066329;28;20532;-74
2022/09/30 04:18:19;;;;;;;8.73;5.63;;;;;;;;;;5068386;28;20214;-74
2022/09/30 04:20:44;;;;;;;5.70;5.03;;;;;;;;;;5065439;28;20198;-74
2022/09/30 04:23:09;;;;;;;6.80;3.73;;;;;;;;;;5062737;28;20259;-74
2022/09/30 04:25:35;;;;;;;6.00;5.10;;;;;;;;;;5058611;28;20197;-74
2022/09/30 04:28:00;;;;;;;8.80;4.73;;;;;;;;;;5068291;28;20233;-74
2022/09/30 04:30:25;;;;;;;8.03;5.63;;;;;;;;;;5061051;28;20192;-74
2022/09/30 04:32:51;;;;;;;6.63;5.93;;;;;;;;;;5061385;28;20228;-74
2022/09/30 04:35:16;;;;;;;6.27;5.30;;;;;;;;;;5069332;28;20185;-74
2022/09/30 04:37:45;;;;;;;8.70;5.47;;;;;;;;;;5070557;28;20229;-74
2022/09/30 04:40:11;;;;;;;8.57;6.07;;;;;;;;;;5065165;28;20190;-74
2022/09/30 04:42:38;;;;;;;6.67;5.67;;;;;;;;;;5064008;28;20176;-74
2022/09/30 04:45:03;;;;;;;6.30;5.23;;;;;;;;;;5066691;28;20183;-74
2022/09/30 04:47:30;;;;;;;8.37;5.13;;;;;;;;;;5070292;28;20171;-74
2022/09/30 04:49:56;;;;;;;7.33;6.03;;;;;;;;;;5066542;28;20266;-74
2022/09/30 04:52:21;;;;;;;7.20;5.33;;;;;;;;;;5069841;28;20183;-74
2022/09/30 04:54:46;;;;;;;9.47;5.43;;;;;;;;;;5065470;28;20187;-74
2022/09/30 04:57:12;;;;;;;7.60;6.40;;;;;;;;;;5066110;28;20238;-74
2022/09/30 04:59:37;;;;;;;11.20;8.43;;;;;;;;;;5069658;28;20195;-73
2022/09/30 05:02:04;;;;;;;9.90;8.17;;;;;;;;;;5065122;28;20176;-73
2022/09/30 05:04:30;;;;;;;9.10;7.60;;;;;;;;;;5065104;28;20233;-73
2022/09/30 05:06:55;;;;;;;7.27;6.07;;;;;;;;;;5071996;28;20183;-73
2022/09/30 05:09:20;;;;;;;12.00;6.33;;;;;;;;;;5064618;28;20193;-73
2022/09/30 05:11:46;;;;;;;6.33;5.73;;;;;;;;;;5066651;28;20180;-72
2022/09/30 05:14:11;;;;;;;6.73;6.03;;;;;;;;;;5086179;28;20177;-73
2022/09/30 05:16:36;;;;;;;10.37;6.87;;;;;;;;;;5069244;28;20198;-73
2022/09/30 05:19:02;;;;;;;11.63;7.30;;;;;;;;;;5059840;28;20200;-73
2022/09/30 05:21:27;;;;;;;10.73;6.53;;;;;;;;;;5065828;28;20268;-73
2022/09/30 05:23:53;;;;;;;7.23;6.13;;;;;;;;;;5071492;28;20206;-73
2022/09/30 05:26:18;;;;;;;8.83;5.63;;;;;;;;;;5074963;28;20180;-73
2022/09/30 05:28:43;;;;;;;5.97;5.37;;;;;;;;;;5067868;28;20183;-73
2022/09/30 05:31:09;;;;;;;6.50;5.70;;;;;;;;;;5069260;28;20187;-73
2022/09/30 05:33:34;;;;;;;8.47;6.80;;;;;;;;;;5066618;28;20223;-73
2022/09/30 05:36:01;;;;;;;7.33;6.57;;;;;;;;;;5065303;28;20184;-73
2022/09/30 05:38:26;;;;;;;5.83;5.07;;;;;;;;;;5066997;28;20223;-72
2022/09/30 05:40:52;;;;;;;8.23;6.13;;;;;;;;;;5061913;28;20175;-73
2022/09/30 05:43:17;;;;;;;9.50;6.93;;;;;;;;;;5056677;28;20471;-72
2022/09/30 05:45:55;;;;;;;11.10;8.43;;;;;;;;;;5066186;28;20263;-73
2022/09/30 05:48:21;;;;;;;12.00;8.33;;;;;;;;;;5066182;28;20270;-73
2022/09/30 05:50:49;;;;;;;10.93;8.67;;;;;;;;;;5063065;28;20269;-73
2022/09/30 05:53:14;;;;;;;12.67;8.47;;;;;;;;;;5061334;28;20181;-73
2022/09/30 05:55:43;;;;;;;9.57;7.03;;;;;;;;;;5066080;28;20179;-72
2022/09/30 05:58:09;;;;;;;10.20;9.13;;;;;;;;;;5056740;28;20202;-73
2022/09/30 06:00:34;;;;;;;9.13;7.10;;;;;;;;;;5062395;28;20271;-73
2022/09/30 06:02:59;;;;;;;11.47;8.00;;;;;;;;;;5061781;28;20177;-72
2022/09/30 06:05:24;;;;;;;8.50;7.07;;;;;;;;;;5068212;28;20212;-73
2022/09/30 06:07:50;;;;;;;10.83;8.97;;;;;;;;;;5069146;28;20174;-73
2022/09/30 06:10:15;;;;;;;11.77;7.57;;;;;;;;;;5055480;28;20188;-73
2022/09/30 06:12:40;;;;;;;11.13;7.63;;;;;;;;;;5059792;28;20179;-72
2022/09/30 06:15:06;;;;;;;12.23;8.20;;;;;;;;;;5060031;28;20194;-72
2022/09/30 06:17:31;;;;;;;12.33;8.27;;;;;;;;;;5063124;28;20199;-73
2022/09/30 06:19:56;;;;;;;9.43;8.17;;;;;;;;;;5063520;28;20244;-73
2022/09/30 06:22:21;;;;;;;11.97;9.87;;;;;;;;;;5067681;28;20184;-73
2022/09/30 06:24:47;;;;;;;14.27;11.67;;;;;;;;;;5068763;28;20176;-73
2022/09/30 06:27:12;;;;;;;13.50;11.70;;;;;;;;;;5060219;28;20191;-73
2022/09/30 06:29:37;;;;;;;22.83;16.83;;;;;;;;;;5057645;28;20180;-73
2022/09/30 06:32:03;;;;;;;14.23;12.27;;;;;;;;;;5067426;28;20306;-73
2022/09/30 06:34:28;;;;;;;16.77;11.17;;;;;;;;;;5061109;28;20239;-73
2022/09/30 06:36:53;;;;;;;14.53;11.67;;;;;;;;;;5066214;28;20229;-73
2022/09/30 06:39:22;;;;;;;14.27;9.90;;;;;;;;;;5068534;28;20204;-73
2022/09/30 06:41:48;;;;;;;12.57;10.10;;;;;;;;;;5061091;28;20179;-73
2022/09/30 06:44:13;;;;;;;11.17;9.97;;;;;;;;;;5061663;28;20183;-73
2022/09/30 06:46:38;;;;;;;11.03;8.97;;;;;;;;;;5063003;28;20181;-73
2022/09/30 06:49:04;;;;;;;10.93;9.03;;;;;;;;;;5059145;28;20216;-73
2022/09/30 06:51:35;;;;;;;13.70;8.30;;;;;;;;;;5056780;28;20192;-73
2022/09/30 06:54:00;;;;;;;13.47;10.63;;;;;;;;;;5058551;28;20186;-73
2022/09/30 06:56:26;;;;;;;12.70;10.03;;;;;;;;;;5058870;28;20194;-73
2022/09/30 06:58:51;;;;;;;15.13;10.37;;;;;;;;;;5060960;28;20219;-73
2022/09/30 07:01:17;;;;;;;16.67;12.17;;;;;;;;;;5062005;28;20180;-73
2022/09/30 07:03:43;;;;;;;10.73;9.50;;;;;;;;;;5064996;28;20177;-73
2022/09/30 07:06:09;;;;;;;12.63;9.33;;;;;;;;;;5057398;28;20202;-73
2022/09/30 07:08:35;;;;;;;9.97;7.83;;;;;;;;;;5058623;28;20220;-73
2022/09/30 07:11:03;;;;;;;12.47;8.17;;;;;;;;;;5051990;28;20206;-73
2022/09/30 07:13:28;;;;;;;12.10;8.57;;;;;;;;;;5066805;28;20223;-73
2022/09/30 07:15:55;;;;;;;13.03;10.03;;;;;;;;;;5068357;28;20265;-73
2022/09/30 07:18:21;;;;;;;12.87;10.10;;;;;;;;;;5065038;28;20204;-73
2022/09/30 07:20:47;;;;;;;9.80;8.63;;;;;;;;;;5063997;28;20177;-73
2022/09/30 07:23:12;;;;;;;12.60;10.17;;;;;;;;;;5054922;28;20192;-73
2022/09/30 07:25:38;;;;;;;15.20;11.40;;;;;;;;;;5062257;28;20173;-73
2022/09/30 07:28:03;;;;;;;18.97;10.50;;;;;;;;;;5059854;28;20222;-73
2022/09/30 07:30:29;;;;;;;13.43;12.00;;;;;;;;;;5057772;28;20264;-73
2022/09/30 07:32:55;;;;;;;12.70;10.73;;;;;;;;;;5063982;28;20222;-73
2022/09/30 07:35:20;;;;;;;20.20;15.77;;;;;;;;;;5054446;28;20213;-73
2022/09/30 07:37:45;;;;;;;11.33;8.93;;;;;;;;;;5059984;28;20181;-73
2022/09/30 07:40:10;;;;;;;10.20;7.77;;;;;;;;;;5060443;28;20200;-73
2022/09/30 07:42:38;;;;;;;10.17;8.00;;;;;;;;;;5063659;28;20177;-73
2022/09/30 07:45:03;;;;;;;10.37;8.43;;;;;;;;;;5060478;28;20187;-73
2022/09/30 07:47:28;;;;;;;8.00;7.20;;;;;;;;;;5065002;28;20173;-73
2022/09/30 07:49:53;;;;;;;11.00;8.83;;;;;;;;;;5057246;28;20559;-73
2022/09/30 07:52:19;;;;;;;10.03;8.37;;;;;;;;;;5061797;28;20189;-73
2022/09/30 07:54:44;;;;;;;9.43;7.47;;;;;;;;;;5062112;28;20209;-73
2022/09/30 07:57:09;;;;;;;17.93;9.73;;;;;;;;;;5056234;28;20177;-73
2022/09/30 07:59:36;;;;;;;10.87;7.70;;;;;;;;;;5062789;28;20207;-73
2022/09/30 08:02:02;;;;;;;11.03;6.50;;;;;;;;;;5062627;28;20239;-73
2022/09/30 08:04:27;;;;;;;8.07;6.50;;;;;;;;;;5054692;28;20178;-73
2022/09/30 08:06:54;;;;;;;9.60;7.20;;;;;;;;;;5058783;28;20176;-73
2022/09/30 08:09:20;;;;;;;8.53;6.70;;;;;;;;;;5059919;28;20186;-73
2022/09/30 08:11:46;;;;;;;9.27;7.43;;;;;;;;;;5053013;28;20246;-73
2022/09/30 08:14:15;;;;;;;8.50;7.50;;;;;;;;;;5058540;28;20181;-73
2022/09/30 08:16:41;;;;;;;10.50;8.77;;;;;;;;;;5056623;28;20189;-73
2022/09/30 08:19:08;;;;;;;11.23;8.50;;;;;;;;;;5060980;28;20202;-73
2022/09/30 08:21:33;;;;;;;12.43;8.33;;;;;;;;;;5060481;28;20185;-74
2022/09/30 08:23:58;;;;;;;10.23;6.90;;;;;;;;;;5065165;28;20192;-73
2022/09/30 08:26:23;;;;;;;10.13;7.20;;;;;;;;;;5059441;28;20177;-73
2022/09/30 08:28:49;;;;;;;8.20;7.33;;;;;;;;;;5062682;28;20290;-73
2022/09/30 08:31:15;;;;;;;8.17;7.37;;;;;;;;;;5059462;28;20238;-73
2022/09/30 08:33:40;;;;;;;7.53;6.77;;;;;;;;;;5056604;28;20227;-73
2022/09/30 08:36:13;;;;;;;9.97;7.70;;;;;;;;;;5059620;28;20182;-73
2022/09/30 08:38:38;;;;;;;12.43;8.03;;;;;;;;;;5070726;28;20213;-73
2022/09/30 08:41:07;;;;;;;9.87;7.53;;;;;;;;;;5061420;28;20178;-73
2022/09/30 08:43:39;;;;;;;8.43;7.43;;;;;;;;;;5063119;28;20170;-73
2022/09/30 08:46:10;;;;;;;10.67;7.30;;;;;;;;;;5062343;28;20223;-73
2022/09/30 08:48:35;;;;;;;14.07;8.20;;;;;;;;;;5060562;28;20189;-73
2022/09/30 08:51:06;;;;;;;9.73;8.70;;;;;;;;;;5065986;28;20174;-73
2022/09/30 08:53:33;;;;;;;13.27;8.27;;;;;;;;;;5063836;28;20178;-73
2022/09/30 08:56:01;;;;;;;10.33;8.47;;;;;;;;;;5067148;28;20188;-73
2022/09/30 08:58:29;;;;;;;10.13;8.37;;;;;;;;;;5070881;28;20201;-73
2022/09/30 09:00:56;;;;;;;9.77;8.07;;;;;;;;;;5066718;28;20178;-73
2022/09/30 09:03:25;;;;;;;10.73;7.73;;;;;;;;;;5063519;28;20186;-73
2022/09/30 09:05:56;;;;;;;9.87;7.87;;;;;;;;;;5058189;28;20246;-73
2022/09/30 09:08:31;;;;;;;9.83;8.03;;;;;;;;;;5068478;28;20181;-73
2022/09/30 09:11:01;;;;;;;8.97;7.03;;;;;;;;;;5063162;28;20181;-73
2022/09/30 09:13:27;;;;;;;6.90;5.70;;;;;;;;;;5064823;28;20188;-73
2022/09/30 09:15:59;;;;;;;8.27;6.70;;;;;;;;;;5076675;28;20178;-73
2022/09/30 09:18:56;;;;;;;8.07;7.27;;;;;;;;;;5070745;28;20287;-73
2022/09/30 09:21:28;;;;;;;9.97;7.63;;;;;;;;;;5032593;28;20193;-73
2022/09/30 09:23:56;;;;;;;8.67;6.70;;;;;;;;;;5068117;28;20185;-73
2022/09/30 09:26:22;;;;;;;10.10;7.37;;;;;;;;;;5069264;28;20174;-73
2022/09/30 09:28:47;;;;;;;9.23;8.33;;;;;;;;;;5070336;28;20178;-74
2022/09/30 09:31:15;;;;;;;8.67;7.60;;;;;;;;;;5064780;28;20181;-73
2022/09/30 09:33:41;;;;;;;7.10;6.40;;;;;;;;;;5067007;28;20221;-73
2022/09/30 09:36:25;;;;;;;8.70;6.57;;;;;;;;;;5064094;28;20189;-73
2022/09/30 09:39:06;;;;;;;8.03;6.70;;;;;;;;;;5070350;28;20206;-73
2022/09/30 09:41:42;;;;;;;10.47;6.33;;;;;;;;;;5065175;28;20173;-73
2022/09/30 09:44:16;;;;;;;7.93;5.00;;;;;;;;;;5060397;28;20183;-73
2022/09/30 09:46:46;;;;;;;6.77;5.77;;;;;;;;;;5063268;28;20179;-73
2022/09/30 09:49:11;;;;;;;6.67;5.30;;;;;;;;;;5083726;28;20227;-74
2022/09/30 09:51:39;;;;;;;5.67;4.67;;;;;;;;;;5064148;28;20215;-73
2022/09/30 09:54:08;;;;;;;5.47;4.00;;;;;;;;;;5065727;28;20179;-73
2022/09/30 09:56:36;;;;;;;5.83;4.40;;;;;;;;;;5068204;28;20182;-73
2022/09/30 09:59:08;;;;;;;5.60;4.83;;;;;;;;;;5069266;28;20198;-73
2022/09/30 10:01:35;;;;;;;5.40;3.87;;;;;;;;;;5064545;28;20181;-73
2022/09/30 10:04:28;;;;;;;3.70;3.27;;;;;;;;;;5063797;28;20229;-73
2022/09/30 10:07:01;;;;;;;6.07;3.27;;;;;;;;;;5067350;28;20216;-73
2022/09/30 10:09:31;;;;;;;4.03;3.03;;;;;;;;;;5064072;28;20254;-73
2022/09/30 10:12:16;;;;;;;4.40;3.07;;;;;;;;;;5059501;28;20179;-74
2022/09/30 10:14:51;;;;;;;4.10;2.80;;;;;;;;;;5065525;28;20187;-74
2022/09/30 10:17:45;;;;;;;2.87;2.60;;;;;;;;;;5082163;28;20200;-74
2022/09/30 10:20:14;;;;;;;5.50;3.17;;;;;;;;;;5044266;28;20227;-74
2022/09/30 10:22:39;;;;;;;4.53;2.80;;;;;;;;;;5068377;28;20192;-74
2022/09/30 10:25:09;;;;;;;4.00;2.70;;;;;;;;;;5071660;28;20181;-73
2022/09/30 10:27:35;;;;;;;4.03;2.60;;;;;;;;;;5067764;28;20178;-74
2022/09/30 10:30:00;;;;;;;3.10;2.50;;;;;;;;;;5066014;28;20181;-74
2022/09/30 10:32:25;;;;;;;9.77;3.97;;;;;;;;;;5061603;28;20260;-74
2022/09/30 10:34:53;;;;;;;2.60;2.40;;;;;;;;;;5071376;28;20223;-74
2022/09/30 10:37:21;;;;;;;4.47;2.77;;;;;;;;;;5060966;28;20204;-74
2022/09/30 10:40:06;;;;;;;6.03;2.80;;;;;;;;;;5071935;28;20211;-74
2022/09/30 10:42:33;;;;;;;5.33;3.20;;;;;;;;;;5065465;28;20168;-73
2022/09/30 10:45:17;;;;;;;5.40;3.10;;;;;;;;;;5066026;28;20172;-74
2022/09/30 10:47:44;;;;;;;4.20;3.10;;;;;;;;;;5075225;28;20174;-74
2022/09/30 10:50:12;;;;;;;3.27;2.97;;;;;;;;;;5068890;28;20180;-73
2022/09/30 10:52:43;;;;;;;4.60;3.00;;;;;;;;;;5061481;28;20184;-74
2022/09/30 10:55:28;;;;;;;6.33;3.10;;;;;;;;;;5075010;28;20262;-74
2022/09/30 10:57:53;;;;;;;4.10;2.93;;;;;;;;;;5066848;28;20180;-74
2022/09/30 11:00:20;;;;;;;4.47;3.67;;;;;;;;;;5064762;28;20206;-74
2022/09/30 11:03:01;;;;;;;4.43;3.27;;;;;;;;;;5067671;28;20226;-73
2022/09/30 11:05:29;;;;;;;5.43;3.50;;;;;;;;;;5067085;28;20218;-74
2022/09/30 11:07:54;;;;;;;4.73;3.60;;;;;;;;;;5065346;28;20242;-74
2022/09/30 11:10:37;;;;;;;3.97;3.40;;;;;;;;;;5057775;28;20317;-74
2022/09/30 11:13:06;;;;;;;3.87;3.47;;;;;;;;;;5079887;28;20236;-74
2022/09/30 11:15:37;;;;;;;6.57;3.63;;;;;;;;;;5061306;28;20203;-74
2022/09/30 11:18:15;;;;;;;3.60;2.87;;;;;;;;;;5065958;28;20188;-74
2022/09/30 11:20:44;;;;;;;6.23;3.57;;;;;;;;;;5058210;28;20173;-74
2022/09/30 11:23:19;;;;;;;3.40;3.10;;;;;;;;;;5066637;28;20284;-74
2022/09/30 11:25:56;;;;;;;5.10;3.13;;;;;;;;;;5059559;28;20264;-74
2022/09/30 11:28:27;;;;;;;3.67;2.90;;;;;;;;;;5085083;28;20447;-74
2022/09/30 11:31:11;;;;;;;6.00;2.90;;;;;;;;;;5062904;28;20462;-74
2022/09/30 11:33:42;;;;;;;3.33;2.70;;;;;;;;;;5059747;28;20271;-74
2022/09/30 11:36:10;;;;;;;2.83;2.63;;;;;;;;;;5057397;28;20189;-74
2022/09/30 11:38:38;;;;;;;2.57;2.37;;;;;;;;;;5059391;28;20288;-74
2022/09/30 11:41:22;;;;;;;2.90;2.60;;;;;;;;;;5069137;28;20169;-73
2022/09/30 11:43:56;;;;;;;3.80;3.50;;;;;;;;;;5062812;28;20507;-74
2022/09/30 11:46:41;;;;;;;3.20;2.70;;;;;;;;;;5082666;28;20196;-74
2022/09/30 11:49:27;;;;;;;6.23;5.73;;;;;;;;;;5059761;28;20233;-74
2022/09/30 11:52:01;;;;;;;3.83;2.93;;;;;;;;;;5061939;28;20276;-74
2022/09/30 11:54:26;;;;;;;3.73;2.93;;;;;;;;;;5065706;28;20187;-74
2022/09/30 11:57:02;;;;;;;3.23;2.70;;;;;;;;;;5060310;28;20170;-74
2022/09/30 11:59:29;;;;;;;3.80;3.07;;;;;;;;;;5065595;28;20303;-74
2022/09/30 12:01:57;;;;;;;3.90;3.23;;;;;;;;;;5058320;28;20210;-74
2022/09/30 12:04:31;;;;;;;2.63;2.40;;;;;;;;;;5060686;28;20183;-74
2022/09/30 12:07:02;;;;;;;9.10;3.37;;;;;;;;;;5064719;28;20178;-74
2022/09/30 12:09:31;;;;;;;2.80;2.57;;;;;;;;;;5065496;28;20208;-74
2022/09/30 12:11:59;;;;;;;3.00;2.67;;;;;;;;;;5063273;28;20181;-74
2022/09/30 12:14:43;;;;;;;3.07;2.73;;;;;;;;;;5059901;28;20182;-74
2022/09/30 12:17:21;;;;;;;4.50;2.50;;;;;;;;;;5065514;28;20201;-75
2022/09/30 12:19:49;;;;;;;3.07;2.60;;;;;;;;;;5060326;28;20203;-74
2022/09/30 12:22:25;;;;;;;3.67;2.70;;;;;;;;;;5064444;28;20182;-75
2022/09/30 12:24:50;;;;;;;5.03;3.20;;;;;;;;;;5078114;28;20165;-74
2022/09/30 12:27:20;;;;;;;4.67;2.63;;;;;;;;;;5071809;28;20198;-74
2022/09/30 12:30:17;;;;;;;5.30;3.10;;;;;;;;;;5071083;28;20220;-74
2022/09/30 12:32:48;;;;;;;4.70;3.00;;;;;;;;;;5066125;28;20228;-75
2022/09/30 12:35:29;;;;;;;3.10;2.80;;;;;;;;;;5071430;28;20238;-74
2022/09/30 12:38:13;;;;;;;5.23;2.73;;;;;;;;;;5064565;28;20206;-74
2022/09/30 12:40:54;;;;;;;4.77;3.17;;;;;;;;;;5062937;28;20187;-75
2022/09/30 12:43:26;;;;;;;3.90;2.97;;;;;;;;;;5066606;28;20188;-75
2022/09/30 12:45:53;;;;;;;4.10;3.53;;;;;;;;;;5069001;28;20600;-74
2022/09/30 12:48:20;;;;;;;5.03;3.37;;;;;;;;;;5065388;28;20191;-74
2022/09/30 12:50:53;;;;;;;3.40;3.10;;;;;;;;;;5065289;28;20183;-74
2022/09/30 12:53:21;;;;;;;3.10;2.80;;;;;;;;;;5085018;28;20190;-73
2022/09/30 12:55:46;;;;;;;4.97;3.30;;;;;;;;;;5064636;28;20180;-74
2022/09/30 12:58:23;;;;;;;5.23;4.03;;;;;;;;;;5063184;28;20192;-73
2022/09/30 13:01:07;;;;;;;3.63;3.20;;;;;;;;;;5059083;28;20280;-74
2022/09/30 13:03:44;;;;;;;3.37;3.00;;;;;;;;;;5065132;28;20176;-74
2022/09/30 13:06:10;;;;;;;3.50;3.20;;;;;;;;;;5064102;28;20193;-74
2022/09/30 13:08:43;;;;;;;3.70;3.40;;;;;;;;;;5066045;28;20370;-74
2022/09/30 13:11:27;;;;;;;4.37;3.50;;;;;;;;;;5064339;28;20505;-74
2022/09/30 13:13:58;;;;;;;5.80;3.70;;;;;;;;;;5065653;28;20256;-74
2022/09/30 13:16:43;;;;;;;8.67;4.17;;;;;;;;;;5063817;28;20179;-74
2022/09/30 13:19:18;;;;;;;5.53;3.50;;;;;;;;;;5065342;28;20201;-74
2022/09/30 13:21:43;;;;;;;5.73;3.97;;;;;;;;;;5065681;28;21809;-74
2022/09/30 13:24:09;;;;;;;5.03;3.73;;;;;;;;;;5068638;28;20268;-74
2022/09/30 13:26:38;;;;;;;3.60;3.30;;;;;;;;;;5068354;28;20271;-74
2022/09/30 13:29:13;;;;;;;5.17;3.40;;;;;;;;;;5067143;28;20174;-74
2022/09/30 13:31:58;;;;;;;4.27;3.87;;;;;;;;;;5067108;28;20182;-74
2022/09/30 13:34:26;;;;;;;5.37;3.57;;;;;;;;;;5054241;28;20298;-74
2022/09/30 13:36:51;;;;;;;4.50;3.47;;;;;;;;;;5064463;28;20179;-74
2022/09/30 13:39:23;;;;;;;4.07;3.67;;;;;;;;;;5065380;28;20221;-74
2022/09/30 13:41:55;;;;;;;4.00;3.60;;;;;;;;;;5068968;28;20185;-74
2022/09/30 13:44:24;;;;;;;3.50;3.20;;;;;;;;;;5062994;28;20179;-74
2022/09/30 13:46:55;;;;;;;5.20;4.20;;;;;;;;;;5057870;28;20233;-74
2022/09/30 13:49:23;;;;;;;5.50;3.53;;;;;;;;;;5061462;28;20192;-73
2022/09/30 13:51:49;;;;;;;4.23;3.20;;;;;;;;;;5061080;28;20227;-74
2022/09/30 13:54:19;;;;;;;3.53;3.23;;;;;;;;;;5070354;28;20221;-74
2022/09/30 13:56:44;;;;;;;4.47;3.17;;;;;;;;;;5059700;28;20274;-74
2022/09/30 13:59:12;;;;;;;4.13;3.27;;;;;;;;;;5067290;28;20314;-74
2022/09/30 14:02:07;;;;;;;3.37;3.13;;;;;;;;;;5063912;28;20190;-74
2022/09/30 14:04:47;;;;;;;5.30;3.13;;;;;;;;;;4980063;28;20192;-74
2022/09/30 14:07:30;;;;;;;3.87;3.27;;;;;;;;;;5065506;28;20173;-74
2022/09/30 14:10:03;;;;;;;4.23;3.20;;;;;;;;;;5060762;28;20188;-74
2022/09/30 14:12:47;;;;;;;4.43;3.70;;;;;;;;;;5062013;28;20233;-74
2022/09/30 14:15:16;;;;;;;4.27;3.87;;;;;;;;;;5062369;28;20503;-73
2022/09/30 14:17:44;;;;;;;4.97;3.37;;;;;;;;;;5058416;28;20182;-73
2022/09/30 14:20:29;;;;;;;5.97;3.97;;;;;;;;;;5062659;28;20303;-73
2022/09/30 14:22:54;;;;;;;4.57;3.60;;;;;;;;;;5065362;28;20173;-74
2022/09/30 14:25:23;;;;;;;4.57;3.37;;;;;;;;;;5080762;28;20181;-73
2022/09/30 14:27:57;;;;;;;4.40;4.00;;;;;;;;;;5067142;28;20177;-73
2022/09/30 14:30:23;;;;;;;4.43;3.97;;;;;;;;;;5072168;28;20190;-74
2022/09/30 14:32:52;;;;;;;6.90;4.03;;;;;;;;;;5059773;28;20244;-73
2022/09/30 14:35:38;;;;;;;4.77;4.17;;;;;;;;;;5057201;28;20187;-74
2022/09/30 14:38:08;;;;;;;4.23;3.73;;;;;;;;;;5063842;28;20185;-74
2022/09/30 14:40:35;;;;;;;7.33;4.23;;;;;;;;;;5059824;28;20189;-74
2022/09/30 14:43:03;;;;;;;5.80;3.97;;;;;;;;;;5065296;28;20181;-74
2022/09/30 14:45:31;;;;;;;4.97;3.70;;;;;;;;;;5067683;28;20247;-73
2022/09/30 14:47:59;;;;;;;4.47;4.00;;;;;;;;;;5069807;28;20182;-73
2022/09/30 14:50:31;;;;;;;8.50;3.70;;;;;;;;;;5064505;28;20185;-73
2022/09/30 14:52:59;;;;;;;6.43;4.13;;;;;;;;;;5061025;28;20199;-73
2022/09/30 14:55:33;;;;;;;5.17;3.90;;;;;;;;;;5066591;28;20183;-74